Monday, October 22, 2018, 4:22 AM GMT
Back to Local

CYQI, Yarmouth, N. S.

Location: , , Canada Lat: 43.833
Local Time: 4:22 AM GMT ( 4:22 GMT) Lon: -66.083
Time Zone: GMT Elev: 141 ft

Show me the last for .
Show Decoded

2018-10-22 04:00 METAR CYQI 220400Z 32015G22KT 15SM BKN041 05/M03 A2982 RMK SC7 SLP101 =
2018-10-22 03:00 METAR CYQI 220300Z 33013G21KT 15SM BKN041 05/M03 A2981 RMK SC7 SLP097 =
2018-10-22 02:00 METAR CYQI 220200Z 33018G25KT 15SM BKN048 05/M03 A2979 RMK SC7 SLP090 =
2018-10-22 01:00 METAR CYQI 220100Z 34016G23KT 15SM OVC041 06/M02 A2975 RMK SC8 SLP078 =
2018-10-22 00:00 METAR CYQI 220000Z 34014G26KT 15SM OVC040 06/M01 A2972 RMK SC8 PRESRR SLP066 =
2018-10-21 23:00 METAR CYQI 212300Z 34018G24KT 15SM SCT040 OVC130 07/M00 A2967 RMK SC3AS5 SLP049
                 =
2018-10-21 22:00 METAR CYQI 212200Z 35014G22KT 15SM SCT038 OVC100 07/00 A2963 RMK SC3AS5 SLP038 =
2018-10-21 21:00 METAR CYQI 212100Z 35011G19KT 15SM FEW025 SCT090 BKN100 OVC250 07/01 A2960 RMK
                 SC1AC3AS3CI1 SLP025 =
2018-10-21 20:00 METAR CYQI 212000Z 35013G23KT 15SM FEW035 BKN068 OVC080 07/02 A2958 RMK
                 SC1AC5AC2 SLP018 =
2018-10-21 19:00 METAR CYQI 211900Z 35014G23KT 15SM OVC060 07/02 A2957 RMK SC8 SLP016 =
2018-10-21 18:00 METAR CYQI 211800Z 35018G28KT 15SM BKN075 BKN085 08/02 A2956 RMK AC5AC2 SLP013 =
2018-10-21 17:00 METAR CYQI 211700Z 36020G27KT 15SM FEW030 BKN085 BKN150 08/02 A2956 RMK
                 SF1AC4AC2 SLP013 =
2018-10-21 16:00 METAR CYQI 211600Z 35016G22KT 15SM FEW030 BKN100 BKN160 10/05 A2956 RMK
                 SF2AC3AC2 SLP012 =
2018-10-21 15:00 METAR CYQI 211500Z 36015KT 15SM FEW030 SCT083 BKN150 11/05 A2957 RMK CU2AC2AC2
                 SLP014 =
2018-10-21 14:00 METAR CYQI 211400Z 36010KT 15SM SCT080 BKN100 10/07 A2957 RMK AC3AC4 SLP016 =
2018-10-21 13:00 METAR CYQI 211300Z 01008KT 15SM BKN100 09/07 A2957 RMK AC6 SLP017 =
2018-10-21 12:00 METAR CYQI 211200Z 36008KT 15SM BKN090 08/06 A2957 RMK AC6 SLP017 =
2018-10-21 11:00 METAR CYQI 211100Z 01009KT 15SM SCT083 06/05 A2956 RMK AC4 SLP013 =
2018-10-21 10:00 METAR CYQI 211000Z 36009KT 15SM FEW250 06/06 A2955 RMK CI2 SLP008 =
2018-10-21 09:00 METAR CYQI 210900Z 01006KT 15SM MIFG SCT250 07/06 A2952 RMK CI4 SLP998 =
2018-10-21 08:00 METAR CYQI 210800Z 35004KT 15SM MIFG SCT250 08/08 A2952 RMK CI3 SLP997 =
2018-10-21 07:00 METAR CYQI 210700Z 32004KT 15SM SCT250 10/10 A2952 RMK CI3 SLP999 =
2018-10-21 06:00 METAR CYQI 210600Z 29006KT 15SM SCT250 10/10 A2954 RMK CI3 SLP004 =
2018-10-21 05:00 METAR CYQI 210500Z 26007KT 15SM FEW075 11/10 A2952 RMK AC2 SLP000 =

Support USWX by starting your Amazon purchase here.